sensor_id;sensor_type;location;lat;lon;timestamp;temperature;humidity
23991;DHT22;12205;50.600;4.608;2023-05-15T00:00:37;12.70;99.90
23991;DHT22;12205;50.600;4.608;2023-05-15T00:03:05;12.70;99.90
23991;DHT22;12205;50.600;4.608;2023-05-15T00:05:32;12.70;99.90
23991;DHT22;12205;50.600;4.608;2023-05-15T00:07:59;12.70;99.90
23991;DHT22;12205;50.600;4.608;2023-05-15T00:10:27;12.60;99.90
23991;DHT22;12205;50.600;4.608;2023-05-15T00:12:54;12.60;99.90
23991;DHT22;12205;50.600;4.608;2023-05-15T00:15:21;12.60;99.90
23991;DHT22;12205;50.600;4.608;2023-05-15T00:17:48;12.50;99.90
23991;DHT22;12205;50.600;4.608;2023-05-15T00:20:15;12.50;99.90
23991;DHT22;12205;50.600;4.608;2023-05-15T00:22:42;12.50;99.90
23991;DHT22;12205;50.600;4.608;2023-05-15T00:25:09;12.50;99.90
23991;DHT22;12205;50.600;4.608;2023-05-15T00:27:37;12.40;99.90
23991;DHT22;12205;50.600;4.608;2023-05-15T00:30:05;12.40;99.90
23991;DHT22;12205;50.600;4.608;2023-05-15T00:32:32;12.40;99.90
23991;DHT22;12205;50.600;4.608;2023-05-15T00:34:59;12.40;99.90
23991;DHT22;12205;50.600;4.608;2023-05-15T00:37:26;12.30;99.90
23991;DHT22;12205;50.600;4.608;2023-05-15T00:39:52;12.30;99.90
23991;DHT22;12205;50.600;4.608;2023-05-15T00:42:19;12.30;99.90
23991;DHT22;12205;50.600;4.608;2023-05-15T00:44:51;12.30;99.90
23991;DHT22;12205;50.600;4.608;2023-05-15T00:47:19;12.20;99.90
23991;DHT22;12205;50.600;4.608;2023-05-15T00:49:46;12.20;99.90
23991;DHT22;12205;50.600;4.608;2023-05-15T00:52:14;12.20;99.90
23991;DHT22;12205;50.600;4.608;2023-05-15T00:54:41;12.20;99.90
23991;DHT22;12205;50.600;4.608;2023-05-15T00:57:08;12.20;99.90
23991;DHT22;12205;50.600;4.608;2023-05-15T00:59:38;12.20;99.90
23991;DHT22;12205;50.600;4.608;2023-05-15T01:02:07;12.20;99.90
23991;DHT22;12205;50.600;4.608;2023-05-15T01:04:34;12.20;99.90
23991;DHT22;12205;50.600;4.608;2023-05-15T01:07:00;12.20;99.90
23991;DHT22;12205;50.600;4.608;2023-05-15T01:09:29;12.10;99.90
23991;DHT22;12205;50.600;4.608;2023-05-15T01:11:58;12.10;99.90
23991;DHT22;12205;50.600;4.608;2023-05-15T01:14:26;12.00;99.90
23991;DHT22;12205;50.600;4.608;2023-05-15T01:16:53;12.00;99.90
23991;DHT22;12205;50.600;4.608;2023-05-15T01:19:22;12.00;99.90
23991;DHT22;12205;50.600;4.608;2023-05-15T01:28:02;12.00;99.90
23991;DHT22;12205;50.600;4.608;2023-05-15T01:30:34;12.00;99.90
23991;DHT22;12205;50.600;4.608;2023-05-15T01:33:05;12.00;99.90
23991;DHT22;12205;50.600;4.608;2023-05-15T01:35:37;12.00;99.90
23991;DHT22;12205;50.600;4.608;2023-05-15T01:38:14;11.90;99.90
23991;DHT22;12205;50.600;4.608;2023-05-15T01:40:43;11.90;99.90
23991;DHT22;12205;50.600;4.608;2023-05-15T01:43:17;11.90;99.90
23991;DHT22;12205;50.600;4.608;2023-05-15T01:45:44;11.90;99.90
23991;DHT22;12205;50.600;4.608;2023-05-15T01:48:13;11.80;99.90
23991;DHT22;12205;50.600;4.608;2023-05-15T01:50:42;11.90;99.90
23991;DHT22;12205;50.600;4.608;2023-05-15T01:53:11;11.80;99.90
23991;DHT22;12205;50.600;4.608;2023-05-15T01:55:40;11.80;99.90
23991;DHT22;12205;50.600;4.608;2023-05-15T01:58:08;11.80;99.90
23991;DHT22;12205;50.600;4.608;2023-05-15T02:00:37;11.80;99.90
23991;DHT22;12205;50.600;4.608;2023-05-15T02:03:05;11.80;99.90
23991;DHT22;12205;50.600;4.608;2023-05-15T02:05:32;11.80;99.90
23991;DHT22;12205;50.600;4.608;2023-05-15T02:08:01;11.80;99.90
23991;DHT22;12205;50.600;4.608;2023-05-15T02:10:30;11.70;99.90
23991;DHT22;12205;50.600;4.608;2023-05-15T02:12:58;11.70;99.90
23991;DHT22;12205;50.600;4.608;2023-05-15T02:15:26;11.70;99.90
23991;DHT22;12205;50.600;4.608;2023-05-15T02:17:55;11.70;99.90
23991;DHT22;12205;50.600;4.608;2023-05-15T02:20:22;11.70;99.90
23991;DHT22;12205;50.600;4.608;2023-05-15T02:22:49;11.70;99.90
23991;DHT22;12205;50.600;4.608;2023-05-15T02:25:16;11.70;99.90
23991;DHT22;12205;50.600;4.608;2023-05-15T02:27:47;11.60;99.90
23991;DHT22;12205;50.600;4.608;2023-05-15T02:30:30;11.60;99.90
23991;DHT22;12205;50.600;4.608;2023-05-15T02:33:06;11.60;99.90
23991;DHT22;12205;50.600;4.608;2023-05-15T02:35:46;11.60;99.90
23991;DHT22;12205;50.600;4.608;2023-05-15T02:38:16;11.70;99.90
23991;DHT22;12205;50.600;4.608;2023-05-15T02:40:45;11.70;99.90
23991;DHT22;12205;50.600;4.608;2023-05-15T02:43:14;11.70;99.90
23991;DHT22;12205;50.600;4.608;2023-05-15T02:45:44;11.60;99.90
23991;DHT22;12205;50.600;4.608;2023-05-15T02:48:13;11.60;99.90
23991;DHT22;12205;50.600;4.608;2023-05-15T02:50:41;11.60;99.90
23991;DHT22;12205;50.600;4.608;2023-05-15T02:53:09;11.60;99.90
23991;DHT22;12205;50.600;4.608;2023-05-15T02:55:38;11.40;99.90
23991;DHT22;12205;50.600;4.608;2023-05-15T02:58:06;11.40;99.90
23991;DHT22;12205;50.600;4.608;2023-05-15T03:00:32;11.30;99.90
23991;DHT22;12205;50.600;4.608;2023-05-15T03:02:59;11.30;99.90
23991;DHT22;12205;50.600;4.608;2023-05-15T03:05:28;11.20;99.90
23991;DHT22;12205;50.600;4.608;2023-05-15T03:07:56;11.20;99.90
23991;DHT22;12205;50.600;4.608;2023-05-15T03:10:23;11.20;99.90
23991;DHT22;12205;50.600;4.608;2023-05-15T03:12:50;11.10;99.90
23991;DHT22;12205;50.600;4.608;2023-05-15T03:15:17;11.10;99.90
23991;DHT22;12205;50.600;4.608;2023-05-15T03:17:44;11.10;99.90
23991;DHT22;12205;50.600;4.608;2023-05-15T03:20:11;11.10;99.90
23991;DHT22;12205;50.600;4.608;2023-05-15T03:22:40;11.10;99.90
23991;DHT22;12205;50.600;4.608;2023-05-15T03:25:09;11.10;99.90
23991;DHT22;12205;50.600;4.608;2023-05-15T03:27:36;11.10;99.90
23991;DHT22;12205;50.600;4.608;2023-05-15T03:30:05;11.10;99.90
23991;DHT22;12205;50.600;4.608;2023-05-15T03:32:32;11.20;99.90
23991;DHT22;12205;50.600;4.608;2023-05-15T03:34:59;11.10;99.90
23991;DHT22;12205;50.600;4.608;2023-05-15T03:37:26;11.00;99.90
23991;DHT22;12205;50.600;4.608;2023-05-15T03:39:54;11.00;99.90
23991;DHT22;12205;50.600;4.608;2023-05-15T03:42:21;11.00;99.90
23991;DHT22;12205;50.600;4.608;2023-05-15T03:44:49;10.90;99.90
23991;DHT22;12205;50.600;4.608;2023-05-15T03:47:17;10.80;99.90
23991;DHT22;12205;50.600;4.608;2023-05-15T03:49:45;10.80;99.90
23991;DHT22;12205;50.600;4.608;2023-05-15T03:52:11;10.90;99.90
23991;DHT22;12205;50.600;4.608;2023-05-15T03:54:39;10.90;99.90
23991;DHT22;12205;50.600;4.608;2023-05-15T03:57:07;10.90;99.90
23991;DHT22;12205;50.600;4.608;2023-05-15T03:59:34;10.80;99.90
23991;DHT22;12205;50.600;4.608;2023-05-15T04:02:01;10.80;99.90
23991;DHT22;12205;50.600;4.608;2023-05-15T04:04:28;10.70;99.90
23991;DHT22;12205;50.600;4.608;2023-05-15T04:06:55;10.60;99.90
23991;DHT22;12205;50.600;4.608;2023-05-15T04:09:22;10.60;99.90
23991;DHT22;12205;50.600;4.608;2023-05-15T04:11:48;10.50;99.90
23991;DHT22;12205;50.600;4.608;2023-05-15T04:14:17;10.60;99.90
23991;DHT22;12205;50.600;4.608;2023-05-15T04:16:44;10.60;99.90
23991;DHT22;12205;50.600;4.608;2023-05-15T04:19:10;10.70;99.90
23991;DHT22;12205;50.600;4.608;2023-05-15T04:21:37;10.70;99.90
23991;DHT22;12205;50.600;4.608;2023-05-15T04:24:06;10.70;99.90
23991;DHT22;12205;50.600;4.608;2023-05-15T04:26:33;10.70;99.90
23991;DHT22;12205;50.600;4.608;2023-05-15T04:29:00;10.70;99.90
23991;DHT22;12205;50.600;4.608;2023-05-15T04:31:29;10.70;99.90
23991;DHT22;12205;50.600;4.608;2023-05-15T04:33:56;10.70;99.90
23991;DHT22;12205;50.600;4.608;2023-05-15T04:36:23;10.70;99.90
23991;DHT22;12205;50.600;4.608;2023-05-15T04:38:50;10.70;99.90
23991;DHT22;12205;50.600;4.608;2023-05-15T04:41:17;10.70;99.90
23991;DHT22;12205;50.600;4.608;2023-05-15T04:43:44;10.70;99.90
23991;DHT22;12205;50.600;4.608;2023-05-15T04:46:11;10.70;99.90
23991;DHT22;12205;50.600;4.608;2023-05-15T04:48:39;10.80;99.90
23991;DHT22;12205;50.600;4.608;2023-05-15T04:51:06;10.80;99.90
23991;DHT22;12205;50.600;4.608;2023-05-15T04:53:33;10.80;99.90
23991;DHT22;12205;50.600;4.608;2023-05-15T04:56:00;10.80;99.90
23991;DHT22;12205;50.600;4.608;2023-05-15T04:58:27;10.80;99.90
23991;DHT22;12205;50.600;4.608;2023-05-15T05:00:54;10.70;99.90
23991;DHT22;12205;50.600;4.608;2023-05-15T05:03:20;10.70;99.90
23991;DHT22;12205;50.600;4.608;2023-05-15T05:05:49;10.80;99.90
23991;DHT22;12205;50.600;4.608;2023-05-15T05:08:16;10.80;99.90
23991;DHT22;12205;50.600;4.608;2023-05-15T05:10:43;10.80;99.90
23991;DHT22;12205;50.600;4.608;2023-05-15T05:13:10;10.80;99.90
23991;DHT22;12205;50.600;4.608;2023-05-15T05:15:37;10.80;99.90
23991;DHT22;12205;50.600;4.608;2023-05-15T05:18:04;10.80;99.90
23991;DHT22;12205;50.600;4.608;2023-05-15T05:20:31;10.80;99.90
23991;DHT22;12205;50.600;4.608;2023-05-15T05:22:59;10.80;99.90
23991;DHT22;12205;50.600;4.608;2023-05-15T05:25:26;10.80;99.90
23991;DHT22;12205;50.600;4.608;2023-05-15T05:27:53;10.80;99.90
23991;DHT22;12205;50.600;4.608;2023-05-15T05:30:20;10.90;99.90
23991;DHT22;12205;50.600;4.608;2023-05-15T05:32:47;11.00;99.90
23991;DHT22;12205;50.600;4.608;2023-05-15T05:35:14;11.00;99.90
23991;DHT22;12205;50.600;4.608;2023-05-15T05:37:41;11.00;99.90
23991;DHT22;12205;50.600;4.608;2023-05-15T05:40:10;11.00;99.90
23991;DHT22;12205;50.600;4.608;2023-05-15T05:42:37;11.10;99.90
23991;DHT22;12205;50.600;4.608;2023-05-15T05:45:05;11.10;99.90
23991;DHT22;12205;50.600;4.608;2023-05-15T05:47:33;11.10;99.90
23991;DHT22;12205;50.600;4.608;2023-05-15T05:50:00;11.20;99.90
23991;DHT22;12205;50.600;4.608;2023-05-15T05:52:27;11.00;99.90
23991;DHT22;12205;50.600;4.608;2023-05-15T05:54:54;11.00;99.90
23991;DHT22;12205;50.600;4.608;2023-05-15T05:57:22;10.90;99.90
23991;DHT22;12205;50.600;4.608;2023-05-15T05:59:49;10.90;99.90
23991;DHT22;12205;50.600;4.608;2023-05-15T06:02:16;10.80;99.90
23991;DHT22;12205;50.600;4.608;2023-05-15T06:04:43;10.80;99.90
23991;DHT22;12205;50.600;4.608;2023-05-15T06:07:10;10.80;99.90
23991;DHT22;12205;50.600;4.608;2023-05-15T06:09:37;10.70;99.90
23991;DHT22;12205;50.600;4.608;2023-05-15T06:12:05;10.60;99.90
23991;DHT22;12205;50.600;4.608;2023-05-15T06:14:34;10.50;99.90
23991;DHT22;12205;50.600;4.608;2023-05-15T06:17:01;10.50;99.90
23991;DHT22;12205;50.600;4.608;2023-05-15T06:19:30;10.50;99.90
23991;DHT22;12205;50.600;4.608;2023-05-15T06:21:57;10.50;99.90
23991;DHT22;12205;50.600;4.608;2023-05-15T06:24:24;10.70;99.90
23991;DHT22;12205;50.600;4.608;2023-05-15T06:26:51;10.80;99.90
23991;DHT22;12205;50.600;4.608;2023-05-15T06:29:18;10.90;99.90
23991;DHT22;12205;50.600;4.608;2023-05-15T06:31:47;11.00;99.90
23991;DHT22;12205;50.600;4.608;2023-05-15T06:34:14;11.00;99.90
23991;DHT22;12205;50.600;4.608;2023-05-15T06:36:40;11.20;99.90
23991;DHT22;12205;50.600;4.608;2023-05-15T06:39:07;11.40;99.90
23991;DHT22;12205;50.600;4.608;2023-05-15T06:41:36;11.50;99.90
23991;DHT22;12205;50.600;4.608;2023-05-15T06:44:03;11.60;99.90
23991;DHT22;12205;50.600;4.608;2023-05-15T06:46:30;11.70;99.90
23991;DHT22;12205;50.600;4.608;2023-05-15T06:48:58;11.70;99.90
23991;DHT22;12205;50.600;4.608;2023-05-15T06:51:25;11.80;99.90
23991;DHT22;12205;50.600;4.608;2023-05-15T06:53:52;11.70;99.90
23991;DHT22;12205;50.600;4.608;2023-05-15T06:56:19;11.70;99.90
23991;DHT22;12205;50.600;4.608;2023-05-15T06:58:46;11.80;99.90
23991;DHT22;12205;50.600;4.608;2023-05-15T07:01:13;11.80;99.90
23991;DHT22;12205;50.600;4.608;2023-05-15T07:03:40;11.90;99.90
23991;DHT22;12205;50.600;4.608;2023-05-15T07:06:09;12.00;99.90
23991;DHT22;12205;50.600;4.608;2023-05-15T07:08:36;12.10;99.90
23991;DHT22;12205;50.600;4.608;2023-05-15T07:11:03;12.20;99.90
23991;DHT22;12205;50.600;4.608;2023-05-15T07:13:30;12.30;99.90
23991;DHT22;12205;50.600;4.608;2023-05-15T07:15:57;12.40;99.90
23991;DHT22;12205;50.600;4.608;2023-05-15T07:18:24;12.50;99.90
23991;DHT22;12205;50.600;4.608;2023-05-15T07:20:51;12.60;99.90
23991;DHT22;12205;50.600;4.608;2023-05-15T07:23:19;12.50;99.90
23991;DHT22;12205;50.600;4.608;2023-05-15T07:25:46;12.50;99.90
23991;DHT22;12205;50.600;4.608;2023-05-15T07:28:13;12.60;99.90
23991;DHT22;12205;50.600;4.608;2023-05-15T07:30:39;12.70;99.90
23991;DHT22;12205;50.600;4.608;2023-05-15T07:33:06;12.70;99.90
23991;DHT22;12205;50.600;4.608;2023-05-15T07:35:33;12.80;99.90
23991;DHT22;12205;50.600;4.608;2023-05-15T07:38:00;12.80;99.90
23991;DHT22;12205;50.600;4.608;2023-05-15T07:40:28;12.70;99.90
23991;DHT22;12205;50.600;4.608;2023-05-15T07:42:56;12.50;99.90
23991;DHT22;12205;50.600;4.608;2023-05-15T07:45:23;12.60;99.90
23991;DHT22;12205;50.600;4.608;2023-05-15T07:47:50;12.80;99.90
23991;DHT22;12205;50.600;4.608;2023-05-15T07:50:17;13.00;99.90
23991;DHT22;12205;50.600;4.608;2023-05-15T07:52:44;13.20;99.90
23991;DHT22;12205;50.600;4.608;2023-05-15T07:55:11;13.30;99.90
23991;DHT22;12205;50.600;4.608;2023-05-15T07:57:39;13.40;99.90
23991;DHT22;12205;50.600;4.608;2023-05-15T08:00:07;13.40;99.90
23991;DHT22;12205;50.600;4.608;2023-05-15T08:02:38;13.50;99.90
23991;DHT22;12205;50.600;4.608;2023-05-15T08:05:05;13.60;99.90
23991;DHT22;12205;50.600;4.608;2023-05-15T08:07:33;13.70;99.90
23991;DHT22;12205;50.600;4.608;2023-05-15T08:10:00;13.70;99.90
23991;DHT22;12205;50.600;4.608;2023-05-15T08:12:28;13.60;99.90
23991;DHT22;12205;50.600;4.608;2023-05-15T08:14:57;13.70;99.90
23991;DHT22;12205;50.600;4.608;2023-05-15T08:17:24;13.90;99.90
23991;DHT22;12205;50.600;4.608;2023-05-15T08:19:51;14.10;99.90
23991;DHT22;12205;50.600;4.608;2023-05-15T08:22:18;14.10;99.90
23991;DHT22;12205;50.600;4.608;2023-05-15T08:24:45;14.20;99.90
23991;DHT22;12205;50.600;4.608;2023-05-15T08:27:12;14.30;99.90
23991;DHT22;12205;50.600;4.608;2023-05-15T08:29:39;14.40;99.90
23991;DHT22;12205;50.600;4.608;2023-05-15T08:32:08;14.50;99.90
23991;DHT22;12205;50.600;4.608;2023-05-15T08:34:35;14.50;99.90
23991;DHT22;12205;50.600;4.608;2023-05-15T08:37:03;14.70;99.90
23991;DHT22;12205;50.600;4.608;2023-05-15T08:39:31;14.80;99.90
23991;DHT22;12205;50.600;4.608;2023-05-15T08:42:17;15.00;99.90
23991;DHT22;12205;50.600;4.608;2023-05-15T08:44:45;15.10;99.90
23991;DHT22;12205;50.600;4.608;2023-05-15T08:47:14;15.30;99.90
23991;DHT22;12205;50.600;4.608;2023-05-15T08:49:48;15.40;99.90
23991;DHT22;12205;50.600;4.608;2023-05-15T08:52:16;15.40;99.90
23991;DHT22;12205;50.600;4.608;2023-05-15T08:54:44;15.50;99.90
23991;DHT22;12205;50.600;4.608;2023-05-15T08:57:12;15.50;99.90
23991;DHT22;12205;50.600;4.608;2023-05-15T08:59:40;15.60;99.90
23991;DHT22;12205;50.600;4.608;2023-05-15T09:02:06;15.80;99.90
23991;DHT22;12205;50.600;4.608;2023-05-15T09:04:35;15.60;99.90
23991;DHT22;12205;50.600;4.608;2023-05-15T09:07:02;15.50;99.90
23991;DHT22;12205;50.600;4.608;2023-05-15T09:09:31;15.40;99.90
23991;DHT22;12205;50.600;4.608;2023-05-15T09:11:59;15.20;99.90
23991;DHT22;12205;50.600;4.608;2023-05-15T09:14:27;15.10;99.90
23991;DHT22;12205;50.600;4.608;2023-05-15T09:16:54;15.00;99.90
23991;DHT22;12205;50.600;4.608;2023-05-15T09:19:21;15.00;99.90
23991;DHT22;12205;50.600;4.608;2023-05-15T09:21:49;15.10;99.90
23991;DHT22;12205;50.600;4.608;2023-05-15T09:24:18;15.10;99.90
23991;DHT22;12205;50.600;4.608;2023-05-15T09:26:48;15.20;99.90
23991;DHT22;12205;50.600;4.608;2023-05-15T09:29:27;15.30;99.90
23991;DHT22;12205;50.600;4.608;2023-05-15T09:31:55;15.20;99.90
23991;DHT22;12205;50.600;4.608;2023-05-15T09:34:28;15.30;99.90
23991;DHT22;12205;50.600;4.608;2023-05-15T09:36:57;15.50;99.90
23991;DHT22;12205;50.600;4.608;2023-05-15T09:39:24;15.60;99.90
23991;DHT22;12205;50.600;4.608;2023-05-15T09:41:51;15.60;99.90
23991;DHT22;12205;50.600;4.608;2023-05-15T09:44:19;15.60;99.90
23991;DHT22;12205;50.600;4.608;2023-05-15T09:46:50;15.60;99.90
23991;DHT22;12205;50.600;4.608;2023-05-15T09:49:17;15.60;99.90
23991;DHT22;12205;50.600;4.608;2023-05-15T09:51:46;15.80;99.90
23991;DHT22;12205;50.600;4.608;2023-05-15T09:54:17;16.00;99.90
23991;DHT22;12205;50.600;4.608;2023-05-15T09:56:44;16.10;99.90
23991;DHT22;12205;50.600;4.608;2023-05-15T09:59:13;16.00;99.90
23991;DHT22;12205;50.600;4.608;2023-05-15T10:01:41;15.80;99.90
23991;DHT22;12205;50.600;4.608;2023-05-15T10:04:10;15.40;99.90
23991;DHT22;12205;50.600;4.608;2023-05-15T10:06:39;15.30;99.90
23991;DHT22;12205;50.600;4.608;2023-05-15T10:09:06;15.20;99.90
23991;DHT22;12205;50.600;4.608;2023-05-15T10:11:36;15.30;99.90
23991;DHT22;12205;50.600;4.608;2023-05-15T10:14:04;15.40;99.90
23991;DHT22;12205;50.600;4.608;2023-05-15T10:16:33;15.60;99.90
23991;DHT22;12205;50.600;4.608;2023-05-15T10:19:03;15.70;99.90
23991;DHT22;12205;50.600;4.608;2023-05-15T10:21:31;15.80;99.90
23991;DHT22;12205;50.600;4.608;2023-05-15T10:24:00;16.00;99.90
23991;DHT22;12205;50.600;4.608;2023-05-15T10:26:35;16.00;99.90
23991;DHT22;12205;50.600;4.608;2023-05-15T10:29:05;16.10;99.90
23991;DHT22;12205;50.600;4.608;2023-05-15T10:31:33;16.20;99.90
23991;DHT22;12205;50.600;4.608;2023-05-15T10:34:01;16.30;99.90
23991;DHT22;12205;50.600;4.608;2023-05-15T10:36:28;16.30;99.90
23991;DHT22;12205;50.600;4.608;2023-05-15T10:38:56;16.40;99.90
23991;DHT22;12205;50.600;4.608;2023-05-15T10:41:24;15.90;99.90
23991;DHT22;12205;50.600;4.608;2023-05-15T10:43:54;15.60;99.90
23991;DHT22;12205;50.600;4.608;2023-05-15T10:46:23;15.70;99.90
23991;DHT22;12205;50.600;4.608;2023-05-15T10:48:51;15.90;99.90
23991;DHT22;12205;50.600;4.608;2023-05-15T10:51:24;15.90;99.90
23991;DHT22;12205;50.600;4.608;2023-05-15T10:53:51;16.10;99.90
23991;DHT22;12205;50.600;4.608;2023-05-15T10:56:18;16.30;99.90
23991;DHT22;12205;50.600;4.608;2023-05-15T10:58:46;16.40;99.90
23991;DHT22;12205;50.600;4.608;2023-05-15T11:01:28;16.40;99.90
23991;DHT22;12205;50.600;4.608;2023-05-15T11:04:06;16.40;99.90
23991;DHT22;12205;50.600;4.608;2023-05-15T11:06:34;16.60;99.90
23991;DHT22;12205;50.600;4.608;2023-05-15T11:09:36;16.70;99.90
23991;DHT22;12205;50.600;4.608;2023-05-15T11:12:05;16.70;99.90
23991;DHT22;12205;50.600;4.608;2023-05-15T11:14:34;16.70;99.90
23991;DHT22;12205;50.600;4.608;2023-05-15T11:17:05;16.80;99.90
23991;DHT22;12205;50.600;4.608;2023-05-15T11:19:56;16.80;99.90
23991;DHT22;12205;50.600;4.608;2023-05-15T11:22:28;16.90;99.90
23991;DHT22;12205;50.600;4.608;2023-05-15T11:24:58;16.90;99.90
23991;DHT22;12205;50.600;4.608;2023-05-15T11:27:27;17.00;99.90
23991;DHT22;12205;50.600;4.608;2023-05-15T11:30:22;16.90;99.90
23991;DHT22;12205;50.600;4.608;2023-05-15T11:33:02;16.80;99.90
23991;DHT22;12205;50.600;4.608;2023-05-15T11:35:34;16.80;99.90
23991;DHT22;12205;50.600;4.608;2023-05-15T11:38:03;16.90;99.90
23991;DHT22;12205;50.600;4.608;2023-05-15T11:40:31;16.90;99.90
23991;DHT22;12205;50.600;4.608;2023-05-15T11:43:00;16.90;99.90
23991;DHT22;12205;50.600;4.608;2023-05-15T11:45:29;16.70;99.90
23991;DHT22;12205;50.600;4.608;2023-05-15T11:47:59;16.60;99.90
23991;DHT22;12205;50.600;4.608;2023-05-15T11:50:29;16.40;99.90
23991;DHT22;12205;50.600;4.608;2023-05-15T11:52:57;16.30;99.90
23991;DHT22;12205;50.600;4.608;2023-05-15T11:55:25;16.30;99.90
23991;DHT22;12205;50.600;4.608;2023-05-15T11:57:52;16.40;99.90
23991;DHT22;12205;50.600;4.608;2023-05-15T12:00:20;16.50;99.90
23991;DHT22;12205;50.600;4.608;2023-05-15T12:02:47;16.30;99.90
23991;DHT22;12205;50.600;4.608;2023-05-15T12:05:14;16.30;99.90
23991;DHT22;12205;50.600;4.608;2023-05-15T12:07:42;16.30;99.90
23991;DHT22;12205;50.600;4.608;2023-05-15T12:10:10;16.40;99.90
23991;DHT22;12205;50.600;4.608;2023-05-15T12:12:38;16.50;99.90
23991;DHT22;12205;50.600;4.608;2023-05-15T12:15:08;16.50;99.90
23991;DHT22;12205;50.600;4.608;2023-05-15T12:17:36;16.50;99.90
23991;DHT22;12205;50.600;4.608;2023-05-15T12:20:06;16.40;99.90
23991;DHT22;12205;50.600;4.608;2023-05-15T12:22:36;16.50;99.90
23991;DHT22;12205;50.600;4.608;2023-05-15T12:25:06;16.60;99.90
23991;DHT22;12205;50.600;4.608;2023-05-15T12:27:33;16.80;99.90
23991;DHT22;12205;50.600;4.608;2023-05-15T12:30:01;17.00;99.90
23991;DHT22;12205;50.600;4.608;2023-05-15T12:32:30;17.20;99.90
23991;DHT22;12205;50.600;4.608;2023-05-15T12:34:58;17.30;99.90
23991;DHT22;12205;50.600;4.608;2023-05-15T12:37:25;17.60;99.90
23991;DHT22;12205;50.600;4.608;2023-05-15T12:39:53;17.90;99.90
23991;DHT22;12205;50.600;4.608;2023-05-15T12:42:22;18.10;99.90
23991;DHT22;12205;50.600;4.608;2023-05-15T12:44:50;18.10;99.90
23991;DHT22;12205;50.600;4.608;2023-05-15T12:47:21;18.30;99.90
23991;DHT22;12205;50.600;4.608;2023-05-15T12:49:48;18.50;99.90
23991;DHT22;12205;50.600;4.608;2023-05-15T12:52:15;18.40;99.90
23991;DHT22;12205;50.600;4.608;2023-05-15T12:54:43;18.30;99.90
23991;DHT22;12205;50.600;4.608;2023-05-15T12:57:11;18.20;99.90
23991;DHT22;12205;50.600;4.608;2023-05-15T12:59:40;18.20;99.90
23991;DHT22;12205;50.600;4.608;2023-05-15T13:02:11;18.30;99.90
23991;DHT22;12205;50.600;4.608;2023-05-15T13:04:38;18.40;99.90
23991;DHT22;12205;50.600;4.608;2023-05-15T13:07:05;18.50;99.90
23991;DHT22;12205;50.600;4.608;2023-05-15T13:09:32;18.40;99.90
23991;DHT22;12205;50.600;4.608;2023-05-15T13:12:01;18.20;99.90
23991;DHT22;12205;50.600;4.608;2023-05-15T13:14:31;18.10;99.90
23991;DHT22;12205;50.600;4.608;2023-05-15T13:17:00;18.20;99.90
23991;DHT22;12205;50.600;4.608;2023-05-15T13:19:29;18.00;99.90
23991;DHT22;12205;50.600;4.608;2023-05-15T13:21:56;18.00;99.90
23991;DHT22;12205;50.600;4.608;2023-05-15T13:24:23;18.10;99.90
23991;DHT22;12205;50.600;4.608;2023-05-15T13:26:50;18.30;99.90
23991;DHT22;12205;50.600;4.608;2023-05-15T13:29:18;18.50;99.90
23991;DHT22;12205;50.600;4.608;2023-05-15T13:31:45;18.40;99.90
23991;DHT22;12205;50.600;4.608;2023-05-15T13:34:13;18.40;99.90
23991;DHT22;12205;50.600;4.608;2023-05-15T13:36:40;18.40;99.90
23991;DHT22;12205;50.600;4.608;2023-05-15T13:39:07;18.30;99.90
23991;DHT22;12205;50.600;4.608;2023-05-15T13:41:35;18.10;99.90
23991;DHT22;12205;50.600;4.608;2023-05-15T13:44:03;17.80;99.90
23991;DHT22;12205;50.600;4.608;2023-05-15T13:46:30;17.50;99.90
23991;DHT22;12205;50.600;4.608;2023-05-15T13:48:57;17.60;99.90
23991;DHT22;12205;50.600;4.608;2023-05-15T13:51:26;17.60;99.90
23991;DHT22;12205;50.600;4.608;2023-05-15T13:53:53;17.50;99.90
23991;DHT22;12205;50.600;4.608;2023-05-15T13:56:20;17.60;99.90
23991;DHT22;12205;50.600;4.608;2023-05-15T13:58:47;17.70;99.90
23991;DHT22;12205;50.600;4.608;2023-05-15T14:01:14;17.70;99.90
23991;DHT22;12205;50.600;4.608;2023-05-15T14:03:41;17.60;99.90
23991;DHT22;12205;50.600;4.608;2023-05-15T14:06:08;17.60;99.90
23991;DHT22;12205;50.600;4.608;2023-05-15T14:08:36;17.60;99.90
23991;DHT22;12205;50.600;4.608;2023-05-15T14:11:03;17.50;99.90
23991;DHT22;12205;50.600;4.608;2023-05-15T14:13:33;17.50;99.90
23991;DHT22;12205;50.600;4.608;2023-05-15T14:16:00;17.40;99.90
23991;DHT22;12205;50.600;4.608;2023-05-15T14:18:27;17.20;99.90
23991;DHT22;12205;50.600;4.608;2023-05-15T14:20:53;17.10;99.90
23991;DHT22;12205;50.600;4.608;2023-05-15T14:23:20;17.10;99.90
23991;DHT22;12205;50.600;4.608;2023-05-15T14:25:49;16.90;99.90
23991;DHT22;12205;50.600;4.608;2023-05-15T14:28:15;16.90;99.90
23991;DHT22;12205;50.600;4.608;2023-05-15T14:30:42;16.80;99.90
23991;DHT22;12205;50.600;4.608;2023-05-15T14:33:09;16.70;99.90
23991;DHT22;12205;50.600;4.608;2023-05-15T14:35:36;16.70;99.90
23991;DHT22;12205;50.600;4.608;2023-05-15T14:38:03;16.60;99.90
23991;DHT22;12205;50.600;4.608;2023-05-15T14:40:30;16.30;99.90
23991;DHT22;12205;50.600;4.608;2023-05-15T14:42:58;16.00;99.90
23991;DHT22;12205;50.600;4.608;2023-05-15T14:45:25;15.90;99.90
23991;DHT22;12205;50.600;4.608;2023-05-15T14:47:52;15.80;99.90
23991;DHT22;12205;50.600;4.608;2023-05-15T14:50:19;15.60;99.90
23991;DHT22;12205;50.600;4.608;2023-05-15T14:52:46;15.40;99.90
23991;DHT22;12205;50.600;4.608;2023-05-15T14:55:13;15.20;99.90
23991;DHT22;12205;50.600;4.608;2023-05-15T14:57:40;15.20;99.90
23991;DHT22;12205;50.600;4.608;2023-05-15T15:00:10;15.10;99.90
23991;DHT22;12205;50.600;4.608;2023-05-15T15:02:37;15.10;99.90
23991;DHT22;12205;50.600;4.608;2023-05-15T15:05:05;14.90;99.90
23991;DHT22;12205;50.600;4.608;2023-05-15T15:08:00;14.80;99.90
23991;DHT22;12205;50.600;4.608;2023-05-15T15:10:28;14.70;99.90
23991;DHT22;12205;50.600;4.608;2023-05-15T15:12:56;14.60;99.90
23991;DHT22;12205;50.600;4.608;2023-05-15T15:15:23;14.50;99.90
23991;DHT22;12205;50.600;4.608;2023-05-15T15:17:50;14.40;99.90
23991;DHT22;12205;50.600;4.608;2023-05-15T15:20:19;14.40;99.90
23991;DHT22;12205;50.600;4.608;2023-05-15T15:22:46;14.20;99.90
23991;DHT22;12205;50.600;4.608;2023-05-15T15:25:15;14.10;99.90
23991;DHT22;12205;50.600;4.608;2023-05-15T15:27:42;13.90;99.90
23991;DHT22;12205;50.600;4.608;2023-05-15T15:30:10;13.80;99.90
23991;DHT22;12205;50.600;4.608;2023-05-15T15:32:38;13.80;99.90
23991;DHT22;12205;50.600;4.608;2023-05-15T15:35:05;13.80;99.90
23991;DHT22;12205;50.600;4.608;2023-05-15T15:37:33;13.80;99.90
23991;DHT22;12205;50.600;4.608;2023-05-15T15:40:03;13.70;99.90
23991;DHT22;12205;50.600;4.608;2023-05-15T15:42:32;13.70;99.90